Tabiona
, Tabiona
Last Weather Update:08/31/2011 10:00:00 PM
Date
ETo
ETc
Rain
Irrigation
Req
Temp
Max
Temp
Min
Temp
Avg
Avg RH
Avg Wind
Avg Solar
inches
inches
incehs
inches
F
F
F
%
%
watts/m2
07/01/2011 0.42" 0.34" 0.00" 0.34" 82.1° 44.2° 62.1° 52.4% 5.9 MPH 723.3w/m2
07/02/2011 0.39" 0.31" 0.00" 0.31" 87.8° 48.5° 66.9° 49.6% 6.7 MPH 531.2w/m2
07/03/2011 0.25" 0.20" 0.00" 0.20" 91.0° 50.6° 70.1° 41.2% 6.6 MPH 297.8w/m2
07/04/2011 0.25" 0.21" 0.11" 0.12" 82.9° 57.6° 65.6° 56.3% 6.6 MPH 348.0w/m2
07/05/2011 0.24" 0.20" 0.47" -0.18" 76.9° 55.3° 63.4° 71.2% 6.8 MPH 356.9w/m2
07/06/2011 0.21" 0.17" 0.01" 0.16" 83.4° 54.5° 67.9° 60.8% 5.5 MPH 364.0w/m2
07/07/2011 0.24" 0.19" 0.13" 0.09" 79.7° 56.4° 63.8° 70.7% 4.9 MPH 348.4w/m2
07/08/2011 0.26" 0.21" 0.00" 0.21" 76.0° 52.8° 62.6° 73.0% 3.5 MPH 408.4w/m2
07/09/2011 0.26" 0.22" 0.00" 0.22" 83.5° 48.8° 65.6° 57.6% 4.3 MPH 377.4w/m2
07/10/2011 0.23" 0.19" 0.02" 0.18" 73.5° 52.4° 61.8° 68.5% 6.2 MPH 543.3w/m2
07/11/2011 0.20" 0.17" 0.33" -0.09" 77.4° 50.9° 60.6° 75.5% 4.7 MPH 310.6w/m2
07/12/2011 0.19" 0.16" 0.03" 0.13" 74.0° 52.7° 60.2° 79.0% 3.7 MPH 298.5w/m2
07/13/2011 0.24" 0.20" 0.47" -0.18" 70.6° 48.2° 57.6° 80.4% 4.0 MPH 385.5w/m2
07/14/2011 0.25" 0.21" 0.00" 0.21" 78.9° 45.5° 61.9° 61.2% 5.4 MPH 546.1w/m2
07/15/2011 0.30" 0.26" 0.00" 0.26" 78.9° 46.2° 62.9° 44.6% 6.3 MPH 502.9w/m2
07/16/2011 0.28" 0.24" 0.00" 0.24" 81.2° 43.9° 62.9° 42.9% 7.1 MPH 357.0w/m2
07/17/2011 0.23" 0.20" 0.00" 0.20" 82.8° 48.4° 64.6° 57.1% 5.7 MPH 319.8w/m2
07/18/2011 0.21" 0.18" 0.18" 0.04" 79.9° 56.0° 63.7° 77.1% 3.2 MPH 313.5w/m2
07/19/2011 0.27" 0.23" 0.26" 0.02" 77.8° 52.6° 63.2° 75.6% 4.0 MPH 410.0w/m2
07/20/2011 0.30" 0.26" 0.00" 0.26" 81.3° 49.8° 65.2° 56.9% 6.8 MPH 402.3w/m2
07/21/2011 0.19" 0.16" 0.00" 0.16" 83.2° 48.5° 65.8° 40.3% 6.7 MPH 384.2w/m2
07/22/2011 0.20" 0.17" 0.00" 0.17" 83.4° 45.2° 65.0° 34.1% 7.7 MPH 380.8w/m2
07/23/2011 0.29" 0.25" 0.00" 0.25" 84.9° 47.9° 67.1° 35.1% 8.2 MPH 414.4w/m2
07/24/2011 0.23" 0.20" 0.00" 0.20" 90.5° 50.3° 69.4° 36.6% 7.0 MPH 343.8w/m2
07/25/2011 0.28" 0.25" 0.00" 0.25" 88.0° 52.9° 69.9° 41.5% 8.3 MPH 427.5w/m2
07/26/2011 0.25" 0.22" 0.20" 0.06" 82.4° 51.2° 65.0° 68.1% 3.8 MPH 367.5w/m2
07/27/2011 0.23" 0.20" 0.00" 0.20" 82.3° 49.9° 63.0° 65.6% 3.3 MPH 319.8w/m2
07/28/2011 0.26" 0.23" 0.00" 0.23" 81.5° 50.4° 65.1° 56.9% 5.4 MPH 453.2w/m2
07/29/2011 0.31" 0.28" 0.00" 0.28" 87.3° 50.7° 67.7° 50.7% 6.6 MPH 413.0w/m2
07/30/2011 0.28" 0.25" 0.00" 0.25" 88.3° 54.5° 68.9° 48.3% 6.6 MPH 358.7w/m2
07/31/2011 0.19" 0.17" 0.13" 0.06" 77.2° 57.9° 63.8° 71.9% 4.1 MPH 279.9w/m2
Totals: 7.95" 6.76" 2.34" 4.88" 91.0° 43.9° 64.6° 58.1% 5.7 MPH 396.4w/m2